Latest Coastal Weather Observations for Red Rocks Point

IDW60701

Issued at 2:23 am WST Thursday 3 September 2026 (issued every 10 minutes, with the page automatically refreshed every 10 minutes)

About coastal observations | Map of coastal stations | Coastal observations for WA | Marine services | Other Formats
Station Details ID: 011053 Name: RED ROCKS POINT Lat: -32.20 Lon: 127.53 Height: 3.1 m
Data from the previous 72 hours. | See also: Recent months at Red Rocks Point
Date/Time
WST
Wind Sea
Height
m
Swell Vis
km
Cloud Weather Temp
°C
Press
MSL
hPa
Rain since
9am
mm
Dir  Spd
kts
Gust
kts
Height
m
Period
s
Dir
03/02:00am WNW 8 8 - - - - - - - 9.5 1019.6 -
03/01:30am NW 8 9 - - - - - - - 9.3 1019.5 -
03/01:00am NW 7 8 - - - - - - - 10.1 1019.7 -
03/12:30am CALM 0 0 - - - - - - - 9.9 1019.7 -
03/12:00am CALM 0 0 - - - - - - - 10.5 1019.8 -
 
Date/Time
WST
Wind Sea
Height
m
Swell Vis
km
Cloud Weather Temp
°C
Press
MSL
hPa
Rain since
9am
mm
Dir  Spd
kts
Gust
kts
Height
m
Period
s
Dir
02/11:30pm CALM 0 0 - - - - - - - 10.1 1019.8 -
02/11:00pm CALM 0 0 - - - - - - - 10.0 1019.9 -
02/10:30pm CALM 0 0 - - - - - - - 9.9 1019.9 -
02/09:30pm CALM 0 0 - - - - - - - 11.5 1020.0 -
02/09:00pm ENE 1 3 - - - - - - - 13.1 1020.1 -
02/08:30pm E 6 6 - - - - - - - 15.4 1019.7 -
02/08:00pm E 6 7 - - - - - - - 15.7 1019.5 -
02/07:30pm ESE 7 9 - - - - - - - 15.9 1019.3 -
02/07:00pm ESE 9 11 - - - - - - - 15.9 1018.9 -
02/06:30pm ESE 9 11 - - - - - - - 16.1 1018.4 -
02/06:00pm ESE 9 11 - - - - - - - 16.1 1017.9 -
02/05:00pm ESE 9 11 - - - - - - - 16.2 1017.3 0.0
02/04:30pm ESE 10 11 - - - - - - - 16.4 1017.0 0.0
02/04:00pm ESE 9 10 - - - - - - - 16.6 1016.8 0.0
02/03:30pm ESE 8 9 - - - - - - - 17.0 1016.8 0.0
02/03:00pm ESE 9 10 - - - - - - - 17.2 1016.7 0.0
02/02:30pm ESE 9 11 - - - - - - - 17.8 1016.7 0.0
02/02:00pm ESE 9 11 - - - - - - - 17.3 1016.9 0.0
02/01:30pm E 8 10 - - - - - - - 17.4 1017.1 0.0
02/01:00pm ESE 7 8 - - - - - - - 17.6 1017.4 0.0
02/12:30pm ESE 8 9 - - - - - - - 17.3 1018.0 0.0
02/12:00pm ESE 7 8 - - - - - - - 18.1 1018.5 0.0
02/11:30am SE 8 9 - - - - - - - 18.3 1019.0 0.0
02/11:00am SE 8 8 - - - - - - - 17.7 1019.4 0.0
02/10:30am SE 8 9 - - - - - - - 17.9 1020.2 0.0
02/10:00am SE 1 4 - - - - - - - 19.1 1020.6 0.0
02/09:30am NNW 5 8 - - - - - - - 18.5 1020.9 0.0
02/09:00am N 7 11 - - - - - - - 17.2 1021.0 -
02/08:30am N 8 11 - - - - - - - 16.3 1021.3 -
02/08:00am NNW 7 9 - - - - - - - 14.7 1021.5 -
02/07:30am NNW 7 9 - - - - - - - 12.8 1021.6 -
02/07:00am NNW 8 10 - - - - - - - 11.1 1021.3 -
02/06:30am NNW 8 9 - - - - - - - 9.7 1021.1 -
02/06:00am NW 7 9 - - - - - - - 8.5 1020.7 -
02/05:30am NW 7 8 - - - - - - - 8.2 1020.6 -
02/05:00am NW 8 9 - - - - - - - 8.2 1020.6 -
02/04:30am NW 8 9 - - - - - - - 8.0 1020.7 -
02/04:00am NW 8 9 - - - - - - - 8.1 1020.4 -
02/03:30am NW 9 9 - - - - - - - 8.3 1020.3 -
02/03:00am NW 9 9 - - - - - - - 8.3 1020.2 -
02/02:30am NW 8 9 - - - - - - - 8.5 1020.3 -
02/02:00am NW 8 9 - - - - - - - 9.3 1020.5 -
02/01:30am NNW 7 8 - - - - - - - 9.5 1020.9 -
02/01:00am NNW 7 7 - - - - - - - 9.5 1021.1 -
02/12:30am NNW 3 4 - - - - - - - 9.8 1021.3 -
02/12:00am ESE 5 7 - - - - - - - 13.1 1021.2 -
 
Date/Time
WST
Wind Sea
Height
m
Swell Vis
km
Cloud Weather Temp
°C
Press
MSL
hPa
Rain since
9am
mm
Dir  Spd
kts
Gust
kts
Height
m
Period
s
Dir
01/11:30pm SE 7 8 - - - - - - - 14.2 1021.4 -
01/11:00pm SSE 6 8 - - - - - - - 14.0 1021.9 -
01/10:30pm SE 6 8 - - - - - - - 14.3 1022.2 -
01/09:30pm SSE 8 9 - - - - - - - 14.5 1022.6 0.0
01/09:00pm SSE 7 8 - - - - - - - 14.7 1022.8 0.0
01/08:30pm SSE 8 10 - - - - - - - 14.7 1022.9 0.0
01/08:00pm SSE 8 9 - - - - - - - 14.8 1023.0 0.0
01/07:30pm SSE 9 11 - - - - - - - 14.8 1022.8 0.0
01/07:00pm SSE 10 11 - - - - - - - 14.6 1022.7 0.0
01/06:30pm S 9 11 - - - - - - - 14.2 1022.6 0.0
01/06:00pm SSW 9 11 - - - - - - - 14.1 1022.7 0.0
01/05:30pm SSW 8 11 - - - - - - - 14.3 1022.4 0.0
01/05:00pm SSW 11 13 - - - - - - - 14.7 1022.2 0.0
01/04:30pm SSW 12 16 - - - - - - - 15.4 1021.9 0.0
01/04:00pm SSW 12 17 - - - - - - - 15.9 1021.7 0.0
01/03:30pm SSW 11 16 - - - - - - - 16.4 1021.4 0.0
01/03:00pm SSW 10 15 - - - - - - - 16.2 1021.2 0.0
01/02:30pm SSW 12 16 - - - - - - - 16.7 1020.9 0.0
01/02:00pm SW 12 18 - - - - - - - 18.1 1020.7 0.0
01/01:30pm SSW 12 17 - - - - - - - 17.5 1020.7 0.0
01/01:00pm SSW 13 18 - - - - - - - 17.9 1020.6 0.0
01/12:30pm SSW 14 18 - - - - - - - 18.3 1020.6 0.0
01/12:00pm SSW 13 17 - - - - - - - 19.5 1020.7 0.0
01/11:30am SSW 12 16 - - - - - - - 19.6 1020.6 0.0
01/11:00am SW 9 13 - - - - - - - 18.4 1020.8 0.0
01/10:30am SW 9 13 - - - - - - - 18.6 1020.8 0.0
01/10:00am SW 7 10 - - - - - - - 18.5 1020.6 0.0
01/09:30am SW 10 13 - - - - - - - 18.5 1020.7 0.0
01/09:00am SW 11 15 - - - - - - - 18.8 1020.6 -
01/08:30am SW 7 12 - - - - - - - 18.8 1020.4 -
01/08:00am SW 6 10 - - - - - - - 18.1 1020.4 -
01/07:00am SSW 10 14 - - - - - - - 17.6 1019.5 -
01/06:30am SSW 10 15 - - - - - - - 16.7 1018.9 -
01/06:00am SW 12 17 - - - - - - - 17.0 1018.7 -
01/05:30am SW 11 16 - - - - - - - 17.1 1017.6 -
01/05:00am WSW 8 11 - - - - - - - 16.9 1017.3 -
01/04:30am W 7 9 - - - - - - - 16.9 1016.5 -
01/04:00am WSW 7 10 - - - - - - - 17.1 1016.1 -
01/03:30am WSW 8 11 - - - - - - - 17.4 1015.8 -
01/03:00am WSW 11 15 - - - - - - - 18.0 1015.3 -
01/02:30am WSW 12 17 - - - - - - - 18.9 1015.3 -
01/02:00am WSW 10 15 - - - - - - - 20.6 1014.9 -
01/01:30am W 7 13 - - - - - - - 22.6 1014.9 -
01/01:00am NW 9 17 - - - - - - - 22.6 1015.2 -
01/12:30am N 7 9 - - - - - - - 22.1 1014.4 -
01/12:00am N 8 12 - - - - - - - 21.8 1014.6 -
 
Date/Time
WST
Wind Sea
Height
m
Swell Vis
km
Cloud Weather Temp
°C
Press
MSL
hPa
Rain since
9am
mm
Dir  Spd
kts
Gust
kts
Height
m
Period
s
Dir
31/11:30pm N 8 11 - - - - - - - 21.0 1014.7 -
31/11:00pm N 8 10 - - - - - - - 20.6 1015.0 -
31/10:30pm N 8 10 - - - - - - - 20.7 1015.2 -
31/09:30pm N 7 9 - - - - - - - 20.5 1015.8 -
31/09:00pm N 7 9 - - - - - - - 20.9 1016.2 -
31/08:30pm N 7 8 - - - - - - - 21.6 1016.3 -
31/08:00pm N 7 8 - - - - - - - 22.0 1016.3 -
31/07:30pm N 7 9 - - - - - - - 22.1 1016.2 -
31/06:30pm N 7 7 - - - - - - - 22.7 1015.9 0.0
31/06:00pm N 6 7 - - - - - - - 22.4 1016.0 0.0
31/05:30pm NNW 4 5 - - - - - - - 24.3 1015.8 0.0
31/05:00pm NNW 7 10 - - - - - - - 28.0 1015.7 0.0
31/04:30pm NW 8 14 - - - - - - - 29.3 1015.7 0.0
31/04:00pm NW 9 15 - - - - - - - 29.9 1015.8 0.0
31/03:30pm NNW 8 15 - - - - - - - 30.5 1016.0 0.0
31/03:00pm NNW 10 17 - - - - - - - 30.8 1016.1 0.0
31/02:30pm NNW 11 18 - - - - - - - 30.6 1016.5 0.0
31/02:00pm NNW 9 16 - - - - - - - 30.5 1016.6 0.0
31/01:30pm NW 9 14 - - - - - - - 30.5 1017.2 0.0
31/01:00pm N 10 15 - - - - - - - 29.9 1017.6 0.0
31/12:30pm N 10 15 - - - - - - - 29.9 1018.2 0.0
31/12:00pm NNW 10 21 - - - - - - - 29.6 1018.9 0.0
31/11:30am N 8 15 - - - - - - - 28.9 1019.6 0.0
31/11:00am N 11 15 - - - - - - - 27.1 1020.4 0.0
31/10:30am N 11 18 - - - - - - - 27.5 1021.1 0.0
31/10:00am N 10 15 - - - - - - - 26.7 1021.5 0.0
31/09:30am N 12 17 - - - - - - - 25.5 1021.9 0.0
31/09:00am N 12 17 - - - - - - - 23.4 1022.3 -
31/08:30am N 12 17 - - - - - - - 21.6 1022.7 -
31/08:00am N 10 14 - - - - - - - 19.6 1022.8 -
31/07:30am NNE 8 12 - - - - - - - 16.3 1023.0 -
31/07:00am NNE 7 10 - - - - - - - 14.2 1023.4 -
31/06:30am NNE 6 8 - - - - - - - 13.1 1023.4 -
31/06:00am NE 6 8 - - - - - - - 12.2 1023.1 -
31/05:30am NE 7 7 - - - - - - - 11.7 1023.0 -
31/05:00am NE 7 8 - - - - - - - 12.1 1023.1 -
31/04:30am NE 7 8 - - - - - - - 12.5 1023.4 -
31/04:00am NE 7 8 - - - - - - - 12.9 1023.5 -
31/03:30am NE 8 10 - - - - - - - 13.4 1023.5 -
31/03:00am NE 8 9 - - - - - - - 13.5 1023.6 -
31/02:30am NE 8 10 - - - - - - - 13.7 1023.8 -

Other formats

Comma delimited format used in spreadsheet applications
http://www.bom.gov.au/fwo/IDW60701/IDW60701.94644.axf

JavaScript Object Notation format (JSON) in row-major order
http://www.bom.gov.au/fwo/IDW60701/IDW60701.94644.json

Data quality

Most of these data are generated automatically and are frequently updated. Quality checks on data are not normally performed. It is possible for incorrect values to appear. Refer to information at About Latest Weather Observations and please check the disclaimer before using these data.